Weather History for Orange City, IA

Change the Weather History Date:

Saturday, January 5, 2013

  Actual Average Record
Temperature  
Mean Temperature 16 °F -  
Max Temperature 26 °F 27 °F 60 °F (2012)
Min Temperature 6 °F 11 °F -18 °F (1950)
Degree Days  
Heating Degree Days 49    
Moisture  
Dew Point 13 °F    
Average Humidity 83    
Maximum Humidity 92    
Minimum Humidity 69    
Precipitation  
Precipitation 0.00 in - - ()
Sea Level Pressure  
Sea Level Pressure 30.00 in    
Wind  
Wind Speed 9 mph (West)    
Max Wind Speed 26 mph    
Max Gust Speed 32 mph    
Visibility 9 miles    
Events Snow    
Averages and records for this station are not official NWS values.
T = Trace of Precipitation, MM = Missing Value Source: NWS Daily Summary

Daily Weather History Graph

Daily Weather History Graph

Search for Another Location

Airport:

Trip Planner

Search our weather history database for the weather conditions in past years. The results will help you decide how hot, cold, wet, or windy it might be!

Date:

Astronomy

Jan. 05, 2013 Rise Set
Actual Time 7:55 AM CST 5:04 PM CST
Civil Twilight 7:23 AM CST 5:36 PM CST
Nautical Twilight 6:47 AM CST 6:11 PM CST
Astronomical Twilight 6:13 AM CST 6:46 PM CST
Moon 12:57 AM CST (1/5) 11:59 AM CST (1/5)
Length of Visible Light 10h 12m
Length of Day
9h 08m
Last Quarter, 44% of the Moon is Illuminated
Jan 5
Last Quarter
Jan 11
New
Jan 18
First Quarter
Jan 26
Full
Feb 3
Last Quarter

Hourly Weather History & Observations

Time (CST) Temp. Windchill Dew Point Humidity Pressure Visibility Wind Dir Wind Speed Gust Speed Precip Events Conditions
12:15 AM 15.8 °F 8.6 °F 12.2 °F 86% 30.04 in 10.0 mi South 4.6 mph - N/A   Clear
12:35 AM 15.8 °F 10.2 °F 12.2 °F 86% 30.04 in 10.0 mi South 3.5 mph - N/A   Clear
1:15 AM 15.8 °F - 10.4 °F 79% 30.04 in 10.0 mi Calm Calm - N/A   Clear
1:35 AM 15.8 °F 7.2 °F 10.4 °F 79% 30.03 in 10.0 mi South 5.8 mph - N/A   Clear
1:55 AM 15.8 °F 7.2 °F 10.4 °F 79% 30.02 in 10.0 mi South 5.8 mph - N/A   Clear
2:15 AM 15.8 °F 8.6 °F 10.4 °F 79% 30.01 in 10.0 mi South 4.6 mph - N/A   Clear
2:35 AM 14.0 °F 2.9 °F 10.4 °F 86% 30.01 in 10.0 mi South 8.1 mph - N/A   Clear
2:55 AM 12.2 °F 0.7 °F 10.4 °F 92% 30.01 in 10.0 mi South 8.1 mph - N/A   Clear
3:15 AM 12.2 °F 1.7 °F 8.6 °F 85% 30.00 in 10.0 mi South 6.9 mph - N/A   Clear
3:35 AM 10.4 °F -2.4 °F 8.6 °F 92% 29.99 in 10.0 mi South 9.2 mph - N/A   Clear
3:55 AM 10.4 °F 0.8 °F 8.6 °F 92% 29.98 in 10.0 mi South 5.8 mph - N/A   Clear
4:15 AM 12.2 °F 1.7 °F 8.6 °F 85% 29.98 in 10.0 mi South 6.9 mph - N/A   Clear
4:35 AM 12.2 °F 2.9 °F 8.6 °F 85% 29.97 in 10.0 mi SSW 5.8 mph - N/A   Clear
4:55 AM 12.2 °F 6.1 °F 8.6 °F 85% 29.96 in 10.0 mi SSW 3.5 mph - N/A   Clear
5:15 AM 10.4 °F 0.8 °F 6.8 °F 85% 29.96 in 10.0 mi SW 5.8 mph - N/A   Clear
5:35 AM 8.6 °F 2.0 °F 6.8 °F 92% 29.97 in 10.0 mi West 3.5 mph - N/A   Clear
5:55 AM 10.4 °F 0.8 °F 8.6 °F 92% 29.96 in 10.0 mi South 5.8 mph - N/A   Clear
6:15 AM 10.4 °F -0.4 °F 8.6 °F 92% 29.95 in 10.0 mi South 6.9 mph - N/A   Clear
6:35 AM 8.6 °F 0.1 °F 6.8 °F 92% 29.96 in 10.0 mi SW 4.6 mph - N/A   Clear
7:15 AM 8.6 °F -2.6 °F 6.8 °F 92% 29.98 in 10.0 mi West 6.9 mph - N/A   Clear
7:35 AM 6.8 °F -3.5 °F 3.2 °F 85% 29.97 in 10.0 mi SW 5.8 mph - N/A   Clear
7:55 AM 10.4 °F -2.4 °F 6.8 °F 85% 29.95 in 10.0 mi SSW 9.2 mph - N/A   Clear
8:15 AM 8.6 °F -2.6 °F 6.8 °F 92% 29.95 in 10.0 mi SSW 6.9 mph - N/A   Clear
8:35 AM 10.4 °F -0.4 °F 6.8 °F 85% 29.96 in 10.0 mi WSW 6.9 mph - N/A   Clear
8:55 AM 8.6 °F -2.6 °F 5.0 °F 85% 29.96 in 10.0 mi West 6.9 mph - N/A   Clear
9:15 AM 8.6 °F - 6.8 °F 92% 29.95 in 10.0 mi Calm Calm - N/A   Clear
9:55 AM 12.2 °F 1.7 °F 8.6 °F 85% 29.96 in 10.0 mi WSW 6.9 mph - N/A   Clear
10:15 AM 12.2 °F 1.7 °F 8.6 °F 85% 29.96 in 10.0 mi SW 6.9 mph - N/A   Clear
10:55 AM 15.8 °F 5.1 °F 10.4 °F 79% 29.96 in 10.0 mi SW 8.1 mph - N/A   Clear
11:15 AM 15.8 °F 5.1 °F 10.4 °F 79% 29.96 in 10.0 mi WSW 8.1 mph - N/A   Clear
11:55 AM 17.6 °F 10.7 °F 12.2 °F 79% 29.95 in 10.0 mi WSW 4.6 mph - N/A   Clear
12:15 PM 19.4 °F 11.5 °F 12.2 °F 74% 29.94 in 10.0 mi WSW 5.8 mph - N/A   Clear
12:35 PM 19.4 °F 8.6 °F 15.8 °F 86% 29.93 in 10.0 mi West 9.2 mph - N/A   Clear
12:55 PM 21.2 °F 10.9 °F 15.8 °F 80% 29.92 in 10.0 mi West 9.2 mph - N/A   Clear
1:15 PM 21.2 °F 10.9 °F 15.8 °F 80% 29.91 in 10.0 mi West 9.2 mph - N/A   Clear
1:35 PM 23.0 °F 12.4 °F 15.8 °F 74% 29.92 in 10.0 mi West 10.4 mph - N/A   Clear
1:55 PM 24.8 °F 12.9 °F 17.6 °F 74% 29.91 in 10.0 mi West 13.8 mph - N/A   Clear
2:15 PM 26.6 °F 14.3 °F 17.6 °F 69% 29.91 in 10.0 mi West 16.1 mph - N/A   Clear
2:35 PM 26.6 °F 13.8 °F 19.4 °F 74% 29.92 in 10.0 mi West 17.3 mph 21.9 mph N/A   Clear
2:55 PM 26.6 °F 14.3 °F 19.4 °F 74% 29.92 in 10.0 mi WNW 16.1 mph - N/A   Clear
3:15 PM 26.6 °F 12.4 °F 21.2 °F 80% 29.93 in 10.0 mi WNW 21.9 mph 26.5 mph N/A   Clear
3:35 PM 26.6 °F 13.4 °F 21.2 °F 80% 29.95 in 10.0 mi NW 18.4 mph 23.0 mph N/A   Clear
3:55 PM 26.6 °F 15.2 °F 19.4 °F 74% 29.95 in 10.0 mi NW 13.8 mph 21.9 mph N/A   Mostly Cloudy
4:15 PM 26.6 °F 12.0 °F 21.2 °F 80% 29.95 in 10.0 mi NW 23.0 mph 27.6 mph N/A   Overcast
5:15 PM 24.8 °F 9.0 °F 19.4 °F 80% 29.98 in 7.0 mi NW 25.3 mph 32.2 mph N/A   Overcast
5:35 PM 24.8 °F 9.0 °F 19.4 °F 80% 29.99 in 5.0 mi NW 25.3 mph - N/A Snow Light Snow
5:55 PM 23.0 °F 6.9 °F 17.6 °F 80% 30.00 in 4.0 mi WNW 24.2 mph 28.8 mph N/A Snow Light Snow
6:15 PM 21.2 °F 4.2 °F 17.6 °F 86% 30.01 in 7.0 mi NW 25.3 mph 31.1 mph N/A   Overcast
6:35 PM 21.2 °F 4.9 °F 17.6 °F 86% 30.02 in 7.0 mi WNW 23.0 mph 26.5 mph N/A   Overcast
6:55 PM 21.2 °F 3.9 °F 17.6 °F 86% 30.03 in 4.0 mi NW 26.5 mph 29.9 mph N/A   Overcast
7:15 PM 21.2 °F 4.5 °F 15.8 °F 80% 30.04 in 5.0 mi NW 24.2 mph 29.9 mph N/A   Haze
7:35 PM 19.4 °F 2.5 °F 15.8 °F 86% 30.04 in 4.0 mi WNW 23.0 mph 31.1 mph N/A   Overcast
7:55 PM 19.4 °F 3.6 °F 15.8 °F 86% 30.05 in 5.0 mi NW 19.6 mph 25.3 mph N/A   Overcast
8:15 PM 19.4 °F 2.1 °F 15.8 °F 86% 30.06 in 7.0 mi NW 24.2 mph 28.8 mph N/A   Overcast
8:35 PM 17.6 °F 1.7 °F 12.2 °F 79% 30.07 in 7.0 mi NW 18.4 mph 27.6 mph N/A   Overcast
8:55 PM 17.6 °F 0.1 °F 12.2 °F 79% 30.07 in 10.0 mi NW 23.0 mph 27.6 mph N/A   Overcast
9:15 PM 15.8 °F -1.5 °F 12.2 °F 86% 30.08 in 4.0 mi NW 20.7 mph 28.8 mph N/A   Overcast
9:35 PM 15.8 °F -0.2 °F 10.4 °F 79% 30.09 in 7.0 mi NW 17.3 mph 24.2 mph N/A   Overcast
9:55 PM 15.8 °F 1.4 °F 12.2 °F 86% 30.10 in 5.0 mi NNW 13.8 mph 20.7 mph N/A Snow Light Snow
10:15 PM 17.6 °F 2.7 °F 14.0 °F 86% 30.11 in 7.0 mi NW 16.1 mph 21.9 mph N/A   Overcast
10:35 PM 17.6 °F 3.2 °F 14.0 °F 86% 30.12 in 10.0 mi NW 15.0 mph 23.0 mph N/A   Overcast
10:55 PM 17.6 °F 2.2 °F 14.0 °F 86% 30.12 in 10.0 mi NW 17.3 mph - N/A   Mostly Cloudy
11:15 PM 17.6 °F 3.7 °F 14.0 °F 86% 30.13 in 10.0 mi NW 13.8 mph 20.7 mph N/A   Scattered Clouds
11:35 PM 17.6 °F 4.3 °F 14.0 °F 86% 30.12 in 10.0 mi NW 12.7 mph - N/A   Clear
11:55 PM 15.8 °F 1.4 °F 12.2 °F 86% 30.13 in 10.0 mi NW 13.8 mph - N/A   Clear